sensor_id;sensor_type;location;lat;lon;timestamp;P1;durP1;ratioP1;P2;durP2;ratioP2
5678;SDS011;2862;52.560;13.566;2024-01-10T00:02:18;70.30;;;25.10;;
5678;SDS011;2862;52.560;13.566;2024-01-10T00:12:21;73.70;;;24.83;;
5678;SDS011;2862;52.560;13.566;2024-01-10T00:22:25;69.93;;;24.87;;
5678;SDS011;2862;52.560;13.566;2024-01-10T00:32:28;73.30;;;23.70;;
5678;SDS011;2862;52.560;13.566;2024-01-10T00:42:32;62.50;;;22.90;;
5678;SDS011;2862;52.560;13.566;2024-01-10T00:52:38;65.53;;;22.13;;
5678;SDS011;2862;52.560;13.566;2024-01-10T01:02:43;73.97;;;25.63;;
5678;SDS011;2862;52.560;13.566;2024-01-10T01:12:46;75.13;;;24.67;;
5678;SDS011;2862;52.560;13.566;2024-01-10T01:22:53;73.40;;;26.50;;
5678;SDS011;2862;52.560;13.566;2024-01-10T01:32:56;81.27;;;27.50;;
5678;SDS011;2862;52.560;13.566;2024-01-10T01:43:00;74.50;;;26.80;;
5678;SDS011;2862;52.560;13.566;2024-01-10T01:53:03;73.07;;;26.03;;
5678;SDS011;2862;52.560;13.566;2024-01-10T02:03:08;80.13;;;26.87;;
5678;SDS011;2862;52.560;13.566;2024-01-10T02:13:11;64.97;;;24.77;;
5678;SDS011;2862;52.560;13.566;2024-01-10T02:23:16;73.73;;;25.00;;
5678;SDS011;2862;52.560;13.566;2024-01-10T02:33:20;74.87;;;27.07;;
5678;SDS011;2862;52.560;13.566;2024-01-10T02:43:23;74.53;;;26.80;;
5678;SDS011;2862;52.560;13.566;2024-01-10T02:53:28;60.83;;;22.80;;
5678;SDS011;2862;52.560;13.566;2024-01-10T03:03:31;86.73;;;28.43;;
5678;SDS011;2862;52.560;13.566;2024-01-10T03:13:36;86.00;;;29.97;;
5678;SDS011;2862;52.560;13.566;2024-01-10T03:23:40;69.60;;;27.63;;
5678;SDS011;2862;52.560;13.566;2024-01-10T03:33:45;80.10;;;28.47;;
5678;SDS011;2862;52.560;13.566;2024-01-10T03:43:48;70.73;;;27.00;;
5678;SDS011;2862;52.560;13.566;2024-01-10T03:53:53;76.07;;;27.50;;
5678;SDS011;2862;52.560;13.566;2024-01-10T04:03:58;73.10;;;27.20;;
5678;SDS011;2862;52.560;13.566;2024-01-10T04:14:02;78.30;;;26.70;;
5678;SDS011;2862;52.560;13.566;2024-01-10T04:24:07;82.63;;;30.90;;
5678;SDS011;2862;52.560;13.566;2024-01-10T04:34:11;78.03;;;27.87;;
5678;SDS011;2862;52.560;13.566;2024-01-10T04:44:15;80.30;;;29.30;;
5678;SDS011;2862;52.560;13.566;2024-01-10T04:54:19;83.07;;;29.70;;
5678;SDS011;2862;52.560;13.566;2024-01-10T05:04:22;72.43;;;25.27;;
5678;SDS011;2862;52.560;13.566;2024-01-10T05:14:26;71.67;;;22.37;;
5678;SDS011;2862;52.560;13.566;2024-01-10T05:24:29;79.40;;;28.00;;
5678;SDS011;2862;52.560;13.566;2024-01-10T05:34:33;69.73;;;26.37;;
5678;SDS011;2862;52.560;13.566;2024-01-10T05:44:36;74.73;;;26.13;;
5678;SDS011;2862;52.560;13.566;2024-01-10T05:54:42;91.60;;;33.40;;
5678;SDS011;2862;52.560;13.566;2024-01-10T06:04:45;95.33;;;31.80;;
5678;SDS011;2862;52.560;13.566;2024-01-10T06:14:49;77.73;;;29.47;;
5678;SDS011;2862;52.560;13.566;2024-01-10T06:24:52;87.83;;;31.47;;
5678;SDS011;2862;52.560;13.566;2024-01-10T06:34:57;91.00;;;29.67;;
5678;SDS011;2862;52.560;13.566;2024-01-10T06:45:02;89.83;;;30.27;;
5678;SDS011;2862;52.560;13.566;2024-01-10T06:55:09;69.33;;;27.10;;
5678;SDS011;2862;52.560;13.566;2024-01-10T07:05:12;83.67;;;28.40;;
5678;SDS011;2862;52.560;13.566;2024-01-10T07:15:17;96.07;;;33.07;;
5678;SDS011;2862;52.560;13.566;2024-01-10T07:25:20;76.83;;;29.60;;
5678;SDS011;2862;52.560;13.566;2024-01-10T07:35:28;86.13;;;29.27;;
5678;SDS011;2862;52.560;13.566;2024-01-10T07:45:32;93.53;;;33.60;;
5678;SDS011;2862;52.560;13.566;2024-01-10T07:55:36;89.97;;;31.40;;
5678;SDS011;2862;52.560;13.566;2024-01-10T08:05:39;92.37;;;33.80;;
5678;SDS011;2862;52.560;13.566;2024-01-10T08:15:43;101.53;;;37.60;;
5678;SDS011;2862;52.560;13.566;2024-01-10T08:25:46;100.33;;;40.63;;
5678;SDS011;2862;52.560;13.566;2024-01-10T08:35:51;96.43;;;38.30;;
5678;SDS011;2862;52.560;13.566;2024-01-10T08:45:53;105.40;;;41.20;;
5678;SDS011;2862;52.560;13.566;2024-01-10T08:55:58;117.43;;;36.70;;
5678;SDS011;2862;52.560;13.566;2024-01-10T09:06:00;105.83;;;39.80;;
5678;SDS011;2862;52.560;13.566;2024-01-10T09:16:06;93.17;;;36.00;;
5678;SDS011;2862;52.560;13.566;2024-01-10T09:26:11;96.83;;;36.03;;
5678;SDS011;2862;52.560;13.566;2024-01-10T09:36:15;92.93;;;33.00;;
5678;SDS011;2862;52.560;13.566;2024-01-10T09:46:18;79.63;;;31.60;;
5678;SDS011;2862;52.560;13.566;2024-01-10T09:56:22;83.43;;;28.43;;
5678;SDS011;2862;52.560;13.566;2024-01-10T10:06:24;75.70;;;28.37;;
5678;SDS011;2862;52.560;13.566;2024-01-10T10:16:29;91.93;;;33.30;;
5678;SDS011;2862;52.560;13.566;2024-01-10T10:26:32;89.37;;;30.93;;
5678;SDS011;2862;52.560;13.566;2024-01-10T10:36:38;69.17;;;27.17;;
5678;SDS011;2862;52.560;13.566;2024-01-10T10:46:41;64.73;;;23.53;;
5678;SDS011;2862;52.560;13.566;2024-01-10T10:56:48;71.13;;;23.87;;
5678;SDS011;2862;52.560;13.566;2024-01-10T11:06:54;65.30;;;23.00;;
5678;SDS011;2862;52.560;13.566;2024-01-10T11:27:39;61.90;;;22.60;;
5678;SDS011;2862;52.560;13.566;2024-01-10T11:37:44;66.17;;;22.73;;
5678;SDS011;2862;52.560;13.566;2024-01-10T11:47:50;60.03;;;21.83;;
5678;SDS011;2862;52.560;13.566;2024-01-10T11:58:05;66.53;;;21.13;;
5678;SDS011;2862;52.560;13.566;2024-01-10T12:08:13;66.83;;;24.27;;
5678;SDS011;2862;52.560;13.566;2024-01-10T12:18:26;63.97;;;21.57;;
5678;SDS011;2862;52.560;13.566;2024-01-10T12:28:30;55.83;;;20.73;;
5678;SDS011;2862;52.560;13.566;2024-01-10T12:38:35;61.10;;;22.30;;
5678;SDS011;2862;52.560;13.566;2024-01-10T12:48:38;61.77;;;20.40;;
5678;SDS011;2862;52.560;13.566;2024-01-10T12:58:50;52.77;;;17.60;;
5678;SDS011;2862;52.560;13.566;2024-01-10T13:08:53;44.53;;;14.20;;
5678;SDS011;2862;52.560;13.566;2024-01-10T13:18:57;59.63;;;20.23;;
5678;SDS011;2862;52.560;13.566;2024-01-10T13:29:01;48.27;;;16.77;;
5678;SDS011;2862;52.560;13.566;2024-01-10T13:39:06;43.23;;;15.37;;
5678;SDS011;2862;52.560;13.566;2024-01-10T13:49:09;56.03;;;18.77;;
5678;SDS011;2862;52.560;13.566;2024-01-10T13:59:14;55.30;;;20.50;;
5678;SDS011;2862;52.560;13.566;2024-01-10T14:09:24;54.07;;;21.30;;
5678;SDS011;2862;52.560;13.566;2024-01-10T14:19:31;68.47;;;22.67;;
5678;SDS011;2862;52.560;13.566;2024-01-10T14:29:35;127.37;;;46.40;;
5678;SDS011;2862;52.560;13.566;2024-01-10T14:39:39;60.73;;;20.83;;
5678;SDS011;2862;52.560;13.566;2024-01-10T14:49:42;57.60;;;19.97;;
5678;SDS011;2862;52.560;13.566;2024-01-10T14:59:46;62.00;;;21.43;;
5678;SDS011;2862;52.560;13.566;2024-01-10T15:09:50;71.27;;;24.70;;
5678;SDS011;2862;52.560;13.566;2024-01-10T15:19:54;67.30;;;21.23;;
5678;SDS011;2862;52.560;13.566;2024-01-10T15:29:57;67.87;;;24.13;;
5678;SDS011;2862;52.560;13.566;2024-01-10T15:40:07;62.70;;;25.50;;
5678;SDS011;2862;52.560;13.566;2024-01-10T15:50:10;69.30;;;22.20;;
5678;SDS011;2862;52.560;13.566;2024-01-10T16:00:14;71.13;;;23.50;;
5678;SDS011;2862;52.560;13.566;2024-01-10T16:10:17;64.47;;;23.23;;
5678;SDS011;2862;52.560;13.566;2024-01-10T16:20:22;63.70;;;24.60;;
5678;SDS011;2862;52.560;13.566;2024-01-10T16:30:25;62.40;;;23.60;;
5678;SDS011;2862;52.560;13.566;2024-01-10T16:40:29;60.00;;;22.63;;
5678;SDS011;2862;52.560;13.566;2024-01-10T16:50:32;66.97;;;23.37;;
5678;SDS011;2862;52.560;13.566;2024-01-10T17:00:36;61.97;;;21.43;;
5678;SDS011;2862;52.560;13.566;2024-01-10T17:10:39;57.33;;;20.43;;
5678;SDS011;2862;52.560;13.566;2024-01-10T17:20:44;55.23;;;20.30;;
5678;SDS011;2862;52.560;13.566;2024-01-10T17:30:47;62.77;;;20.30;;
5678;SDS011;2862;52.560;13.566;2024-01-10T17:40:51;53.20;;;20.30;;
5678;SDS011;2862;52.560;13.566;2024-01-10T17:50:56;53.47;;;19.37;;
5678;SDS011;2862;52.560;13.566;2024-01-10T18:01:00;63.97;;;22.10;;
5678;SDS011;2862;52.560;13.566;2024-01-10T18:11:02;62.17;;;22.27;;
5678;SDS011;2862;52.560;13.566;2024-01-10T18:21:12;50.30;;;19.37;;
5678;SDS011;2862;52.560;13.566;2024-01-10T18:31:32;64.17;;;21.50;;
5678;SDS011;2862;52.560;13.566;2024-01-10T18:41:39;63.27;;;20.90;;
5678;SDS011;2862;52.560;13.566;2024-01-10T18:51:46;60.30;;;22.97;;
5678;SDS011;2862;52.560;13.566;2024-01-10T19:01:53;56.63;;;20.90;;
5678;SDS011;2862;52.560;13.566;2024-01-10T19:11:56;70.67;;;24.67;;
5678;SDS011;2862;52.560;13.566;2024-01-10T19:22:00;59.07;;;22.53;;
5678;SDS011;2862;52.560;13.566;2024-01-10T19:32:06;75.07;;;24.13;;
5678;SDS011;2862;52.560;13.566;2024-01-10T19:42:10;59.27;;;23.53;;
5678;SDS011;2862;52.560;13.566;2024-01-10T19:52:13;59.00;;;24.27;;
5678;SDS011;2862;52.560;13.566;2024-01-10T20:02:18;58.67;;;22.73;;
5678;SDS011;2862;52.560;13.566;2024-01-10T20:12:22;60.40;;;21.77;;
5678;SDS011;2862;52.560;13.566;2024-01-10T20:22:27;65.37;;;22.53;;
5678;SDS011;2862;52.560;13.566;2024-01-10T20:32:30;60.87;;;24.13;;
5678;SDS011;2862;52.560;13.566;2024-01-10T20:42:34;63.77;;;23.10;;
5678;SDS011;2862;52.560;13.566;2024-01-10T20:52:37;58.60;;;22.00;;
5678;SDS011;2862;52.560;13.566;2024-01-10T21:02:41;58.80;;;22.57;;
5678;SDS011;2862;52.560;13.566;2024-01-10T21:12:44;68.07;;;23.30;;
5678;SDS011;2862;52.560;13.566;2024-01-10T21:22:49;55.60;;;21.17;;
5678;SDS011;2862;52.560;13.566;2024-01-10T21:32:53;55.37;;;20.20;;
5678;SDS011;2862;52.560;13.566;2024-01-10T21:42:57;57.23;;;18.37;;
5678;SDS011;2862;52.560;13.566;2024-01-10T21:53:00;56.57;;;18.40;;
5678;SDS011;2862;52.560;13.566;2024-01-10T22:03:05;53.57;;;16.90;;
5678;SDS011;2862;52.560;13.566;2024-01-10T22:13:09;47.60;;;16.37;;
5678;SDS011;2862;52.560;13.566;2024-01-10T22:23:13;43.70;;;15.90;;
5678;SDS011;2862;52.560;13.566;2024-01-10T22:33:16;43.40;;;14.33;;
5678;SDS011;2862;52.560;13.566;2024-01-10T22:43:21;50.23;;;16.60;;
5678;SDS011;2862;52.560;13.566;2024-01-10T22:53:24;40.60;;;13.87;;
5678;SDS011;2862;52.560;13.566;2024-01-10T23:03:28;37.07;;;10.87;;
5678;SDS011;2862;52.560;13.566;2024-01-10T23:13:39;40.90;;;15.53;;
5678;SDS011;2862;52.560;13.566;2024-01-10T23:23:44;44.37;;;14.83;;
5678;SDS011;2862;52.560;13.566;2024-01-10T23:33:47;40.00;;;12.20;;
5678;SDS011;2862;52.560;13.566;2024-01-10T23:43:51;33.40;;;9.03;;
5678;SDS011;2862;52.560;13.566;2024-01-10T23:53:54;33.67;;;8.50;;
